Data for 10/19/2016

Time Sea-Level Adjusted Pressure Absolute Pressure Temperature Relative Humidity Dew Point   
(mb) (inHg) (mb) (inHg) (C) (F) (%) (C) (F)
00:05 1022 30.18 851 25.13 2 35.6 89 0.3 32.6
00:10 1022 30.18 851 25.13 1.9 35.4 89 0.3 32.5
00:15 1022 30.18 851 25.13 1.7 35.1 89 0.1 32.3
00:20 1022 30.18 851 25.13 1.5 34.7 89 -0 31.9
00:25 1022 30.18 852 25.16 1.4 34.4 90 -0.1 31.8
00:30 1022 30.18 852 25.16 1.2 34.2 90 -0.2 31.6
00:35 1022 30.18 852 25.16 1.1 34 90 -0.3 31.5
00:40 1023 30.21 852 25.16 1 33.7 91 -0.4 31.3
00:45 1023 30.21 852 25.16 0.7 33.2 92 -0.5 31
00:50 1023 30.21 852 25.16 0.5 33 92 -0.6 31
00:55 1023 30.21 852 25.16 0.6 33.1 92 -0.5 31
01:00 1023 30.21 852 25.16 0.7 33.2 92 -0.4 31.2
01:05 1023 30.21 852 25.16 0.8 33.4 92 -0.4 31.4
01:10 1023 30.21 852 25.16 0.9 33.6 92 -0.3 31.5
01:15 1023 30.21 852 25.16 1 33.9 91 -0.2 31.6
01:20 1023 30.21 852 25.16 1.1 34 90 -0.4 31.3
01:25 1023 30.21 852 25.16 1.2 34.2 89 -0.3 31.4
01:30 1023 30.21 852 25.16 1.4 34.4 89 -0.2 31.6
01:35 1023 30.21 852 25.16 1.4 34.5 89 -0.2 31.7
01:40 1023 30.21 852 25.16 1.4 34.5 89 -0.2 31.6
01:45 1023 30.21 852 25.16 1.5 34.7 88 -0.3 31.5
01:50 1023 30.21 852 25.16 1.6 34.8 87 -0.4 31.3
01:55 1023 30.21 852 25.16 1.7 35 87 -0.3 31.4
02:00 1023 30.21 852 25.16 1.7 35.1 85 -0.5 31.1
02:05 1023 30.21 852 25.16 1.9 35.5 83 -0.7 30.8
02:10 1023 30.21 852 25.16 2.2 36 83 -0.4 31.3
02:15 1023 30.21 852 25.16 1.9 35.5 85 -0.3 31.4
02:20 1023 30.21 852 25.16 1.6 34.8 88 -0.2 31.6
02:25 1023 30.21 852 25.16 1.1 33.9 90 -0.3 31.4
02:30 1023 30.21 852 25.16 1 33.8 91 -0.4 31.3
02:35 1023 30.21 852 25.16 1 33.9 90 -0.4 31.3
02:40 1023 30.21 852 25.16 1.1 33.9 90 -0.4 31.2
02:45 1023 30.21 852 25.16 1.1 33.9 90 -0.4 31.3
02:50 1023 30.21 852 25.16 1 33.8 90 -0.4 31.2
02:55 1023 30.21 852 25.16 1.1 33.9 90 -0.4 31.2
03:00 1023 30.21 853 25.19 1.2 34.1 89 -0.4 31.2
03:05 1023 30.21 853 25.19 1.2 34.1 89 -0.5 31.1
03:10 1023 30.21 853 25.19 1.2 34.1 88 -0.6 31
03:15 1023 30.21 853 25.19 1.3 34.3 87 -0.6 30.9
03:20 1023 30.21 853 25.19 1.4 34.5 86 -0.8 30.6
03:25 1023 30.21 853 25.19 1.5 34.6 86 -0.7 30.8
03:30 1023 30.21 853 25.19 1.3 34.4 86 -0.7 30.7
03:35 1023 30.21 853 25.19 1.3 34.3 86 -0.8 30.6
03:40 1023 30.21 853 25.19 1.3 34.3 85 -1 30.2
03:45 1024 30.24 853 25.19 1.5 34.7 84 -1 30.3
03:50 1024 30.24 853 25.19 1.5 34.6 85 -0.8 30.6
03:55 1024 30.24 853 25.19 1.3 34.4 86 -0.8 30.6
04:00 1024 30.24 853 25.19 1.3 34.3 86 -0.8 30.5
04:05 1024 30.24 853 25.19 1.2 34.2 86 -0.8 30.5
04:10 1024 30.24 853 25.19 1.3 34.3 86 -0.8 30.5
04:15 1024 30.24 853 25.19 1.4 34.6 86 -0.7 30.8
04:20 1024 30.24 853 25.19 1.6 34.9 84 -0.8 30.6
04:25 1024 30.24 853 25.19 1.8 35.2 82 -1 30.2
04:30 1024 30.24 853 25.19 1.8 35.3 82 -1 30.3
04:35 1024 30.24 853 25.19 1.7 35 82 -1.1 30
04:40 1024 30.24 853 25.19 1.7 35.1 82 -1 30.1
04:45 1024 30.24 853 25.19 1.8 35.2 81 -1.1 30
04:50 1024 30.24 853 25.19 1.8 35.3 83 -0.8 30.6
04:55 1024 30.24 853 25.19 1.7 35.1 84 -0.7 30.8
05:00 1024 30.24 853 25.19 1.7 35 81 -1.2 29.9
05:05 1024 30.24 853 25.19 1.7 35.1 81 -1.1 30
05:10 1024 30.24 854 25.22 1.7 35 82 -1.1 30.1
05:15 1024 30.24 854 25.22 1.6 35 83 -0.9 30.4
05:20 1024 30.24 854 25.22 1.6 34.8 85 -0.7 30.7
05:25 1025 30.27 854 25.22 1.3 34.4 85 -1 30.3
05:30 1025 30.27 854 25.22 1.4 34.5 85 -0.9 30.4
05:35 1025 30.27 854 25.22 1.4 34.5 84 -0.9 30.3
05:40 1025 30.27 854 25.22 1.6 34.9 82 -1.2 29.9
05:45 1025 30.27 854 25.22 1.8 35.2 82 -0.9 30.4
05:50 1025 30.27 854 25.22 1.8 35.2 84 -0.6 30.9
05:55 1025 30.27 854 25.22 1.6 34.8 86 -0.6 31
06:00 1025 30.27 854 25.22 1.5 34.7 84 -0.9 30.4
06:05 1025 30.27 854 25.22 1.5 34.7 86 -0.5 31.1
06:10 1025 30.27 854 25.22 1.4 34.5 88 -0.5 31.2
06:15 1025 30.27 854 25.22 1.3 34.4 88 -0.5 31.1
06:20 1025 30.27 854 25.22 1.5 34.6 85 -0.8 30.6
06:25 1025 30.27 854 25.22 1.5 34.7 86 -0.7 30.8
06:30 1025 30.27 854 25.22 1.4 34.6 84 -0.9 30.3
06:35 1025 30.27 854 25.22 1.7 35 82 -1.2 29.9
06:40 1025 30.27 854 25.22 1.7 35.1 84 -0.7 30.7
06:45 1025 30.27 854 25.22 1.7 35 86 -0.4 31.4
06:50 1025 30.27 855 25.25 1.4 34.4 88 -0.4 31.2
06:55 1025 30.27 855 25.25 1.1 34 89 -0.5 31.1
07:00 1025 30.27 855 25.25 1.2 34.1 88 -0.5 31
07:05 1026 30.3 855 25.25 1.2 34.2 88 -0.6 31
07:10 1026 30.3 855 25.25 1.3 34.3 86 -0.8 30.5
07:15 1026 30.3 855 25.25 1.4 34.5 86 -0.7 30.7
07:20 1026 30.3 855 25.25 1.5 34.7 84 -0.9 30.4
07:25 1026 30.3 855 25.25 1.5 34.8 83 -1.1 30.1
07:30 1026 30.3 855 25.25 1.7 35 86 -0.4 31.2
07:35 1026 30.3 855 25.25 1.7 35 86 -0.4 31.3
07:40 1026 30.3 855 25.25 1.6 34.9 87 -0.3 31.4
07:45 1026 30.3 855 25.25 1.6 34.9 87 -0.4 31.3
07:50 1026 30.3 855 25.25 1.6 34.8 87 -0.3 31.4
07:55 1026 30.3 855 25.25 1.7 35.1 87 -0.2 31.7
08:00 1026 30.3 855 25.25 1.9 35.4 86 -0.2 31.6
08:05 1026 30.3 856 25.28 2 35.6 86 -0.2 31.7
08:10 1026 30.3 856 25.28 2.2 35.9 84 -0.3 31.5
08:15 1026 30.3 856 25.28 2.4 36.2 80 -0.7 30.7
08:20 1027 30.33 856 25.28 2.6 36.6 79 -0.7 30.8
08:25 1027 30.33 856 25.28 2.6 36.7 79 -0.7 30.7
08:30 1027 30.33 856 25.28 2.4 36.4 78 -1 30.2
08:35 1027 30.33 856 25.28 2.4 36.3 77 -1.2 29.9
08:40 1027 30.33 856 25.28 2.4 36.4 78 -1 30.1
08:45 1027 30.33 856 25.28 2.6 36.7 77 -1.1 30
08:50 1027 30.33 856 25.28 2.7 36.9 75 -1.2 29.8
08:55 1027 30.33 856 25.28 2.7 36.8 76 -1.1 29.9
09:00 1027 30.33 856 25.28 2.6 36.7 78 -0.8 30.5
09:05 1027 30.33 856 25.28 2.5 36.6 79 -0.8 30.6
09:10 1027 30.33 856 25.28 2.4 36.3 78 -1 30.2
09:15 1027 30.33 856 25.28 2.2 35.9 80 -0.9 30.4
09:20 1027 30.33 856 25.28 2.1 35.8 80 -0.9 30.3
09:25 1027 30.33 856 25.28 2 35.5 82 -0.8 30.5
09:30 1027 30.33 856 25.28 1.9 35.5 81 -0.9 30.3
09:35 1027 30.33 856 25.28 2 35.6 81 -1 30.2
09:40 1027 30.33 856 25.28 2.2 35.9 79 -1 30.2
09:45 1027 30.33 856 25.28 2.3 36.2 79 -0.9 30.3
09:50 1027 30.33 856 25.28 2.4 36.4 78 -1 30.2
09:55 1027 30.33 856 25.28 2.5 36.5 78 -1 30.3
10:00 1027 30.33 856 25.28 2.7 36.8 76 -1.1 30
10:05 1027 30.33 856 25.28 3 37.4 73 -1.3 29.6
10:10 1027 30.33 857 25.31 3.3 38 74 -0.9 30.5
10:15 1027 30.33 857 25.31 3.7 38.7 73 -0.7 30.8
10:20 1028 30.36 857 25.31 4 39.2 64 -2.3 27.9
10:25 1028 30.36 857 25.31 4.3 39.7 67 -1.3 29.7
10:30 1028 30.36 857 25.31 4.3 39.7 68 -1 30.1
10:35 1028 30.36 857 25.31 4.2 39.6 68 -1.3 29.7
10:40 1028 30.36 857 25.31 4.2 39.6 72 -0.5 31.2
10:45 1028 30.36 857 25.31 4.1 39.4 71 -0.8 30.6
10:50 1028 30.36 857 25.31 4.1 39.3 73 -0.4 31.2
10:55 1028 30.36 857 25.31 4.2 39.5 70 -0.7 30.7
11:00 1028 30.36 857 25.31 4.4 39.9 70 -0.5 31.1
11:05 1028 30.36 857 25.31 4.9 40.8 70 -0.2 31.6
11:10 1028 30.36 857 25.31 5.4 41.8 66 -0.5 31.1
11:15 1028 30.36 857 25.31 5.6 42.1 63 -0.8 30.5
11:20 1028 30.36 857 25.31 5.6 42.2 61 -1.2 29.9
11:25 1028 30.36 857 25.31 5.7 42.2 63 -0.8 30.5
11:30 1028 30.36 857 25.31 5.8 42.4 61 -1 30.1
11:35 1028 30.36 857 25.31 5.9 42.7 63 -0.5 31.2
11:40 1028 30.36 857 25.31 6 42.7 65 -0.2 31.6
11:45 1028 30.36 857 25.31 5.6 42 67 -0 32
11:50 1028 30.36 857 25.31 5.9 42.6 63 -0.7 30.8
11:55 1028 30.36 857 25.31 6.9 44.4 58 -0.9 30.5
12:00 1028 30.36 857 25.31 7.5 45.5 56 -0.8 30.6
12:05 1028 30.36 857 25.31 7.5 45.6 53 -1.4 29.5
12:10 1028 30.36 857 25.31 7.6 45.7 51 -1.9 28.6
12:15 1028 30.36 857 25.31 7.5 45.5 52 -1.7 28.9
12:20 1028 30.36 857 25.31 7.5 45.5 51 -1.8 28.7
12:25 1028 30.36 857 25.31 7.6 45.6 50 -2.2 28
12:30 1028 30.36 857 25.31 7.6 45.6 52 -1.8 28.8
12:35 1028 30.36 857 25.31 7.5 45.4 51 -2 28.4
12:40 1028 30.36 857 25.31 7.4 45.2 49 -2.6 27.2
12:45 1028 30.36 857 25.31 7.5 45.5 48 -2.7 27.2
12:50 1028 30.36 857 25.31 7.4 45.2 46 -3.6 25.5
12:55 1028 30.36 857 25.31 7.2 44.9 48 -3.1 26.4
13:00 1028 30.36 857 25.31 7.1 44.8 47 -3.4 25.8
13:05 1028 30.36 857 25.31 7.4 45.4 45 -3.6 25.5
13:10 1028 30.36 857 25.31 7.6 45.7 47 -3 26.5
13:15 1028 30.36 857 25.31 7.5 45.4 46 -3.5 25.8
13:20 1028 30.36 857 25.31 7.2 45 48 -3.1 26.4
13:25 1028 30.36 857 25.31 7.2 45 49 -2.9 26.8
13:30 1028 30.36 857 25.31 7.1 44.7 51 -2.4 27.7
13:35 1028 30.36 857 25.31 7.2 44.9 51 -2.4 27.7
13:40 1028 30.36 857 25.31 7.3 45.1 47 -3.3 26
13:45 1028 30.36 857 25.31 7.3 45.2 47 -3.3 26.1
13:50 1028 30.36 857 25.31 7.5 45.5 46 -3.5 25.7
13:55 1028 30.36 857 25.31 7.5 45.5 44 -3.8 25.1
14:00 1028 30.36 857 25.31 7.4 45.3 45 -3.8 25.2
14:05 1028 30.36 857 25.31 7.5 45.5 45 -3.6 25.5
14:10 1028 30.36 857 25.31 7.7 45.8 45 -3.4 25.9
14:15 1028 30.36 857 25.31 7.6 45.7 46 -3.3 26
14:20 1028 30.36 857 25.31 7.9 46.3 44 -3.7 25.4
14:25 1028 30.36 857 25.31 8.5 47.2 41 -3.9 24.9
14:30 1028 30.36 857 25.31 8.2 46.8 42 -3.9 25
14:35 1028 30.36 857 25.31 8.4 47.2 41 -4.1 24.7
14:40 1028 30.36 857 25.31 8.7 47.7 40 -3.9 24.9
14:45 1028 30.36 857 25.31 8.4 47.2 41 -4.1 24.7
14:50 1028 30.36 857 25.31 8.4 47.2 41 -4 24.8
14:55 1028 30.36 857 25.31 8.4 47.2 41 -4 24.8
15:00 1028 30.36 857 25.31 8.4 47.1 40 -4.3 24.2
15:05 1028 30.36 857 25.31 8.6 47.4 41 -4.1 24.7
15:10 1028 30.36 857 25.31 8.6 47.5 38 -4.7 23.5
15:15 1028 30.36 857 25.31 8.8 47.8 38 -4.6 23.8
15:20 1028 30.36 857 25.31 8.8 47.8 38 -4.6 23.8
15:25 1028 30.36 857 25.31 8.8 47.9 38 -4.7 23.6
15:30 1028 30.36 857 25.31 8.9 47.9 38 -4.5 23.9
15:35 1028 30.36 857 25.31 9.2 48.5 36 -5.1 22.9
15:40 1028 30.36 857 25.31 9.3 48.8 37 -4.7 23.6
15:45 1028 30.36 857 25.31 9.4 49 36 -4.9 23.1
15:50 1028 30.36 857 25.31 9.8 49.7 35 -5 23
15:55 1028 30.36 857 25.31 10 50 33 -5.4 22.3
16:00 1028 30.36 857 25.31 10.5 50.8 33 -5.2 22.7
16:05 1028 30.36 857 25.31 10.7 51.2 31 -5.8 21.6
16:10 1028 30.36 857 25.31 10.4 50.8 32 -5.7 21.7
16:15 1028 30.36 857 25.31 10.5 50.9 31 -6.1 21.1
16:20 1028 30.36 857 25.31 10.6 51 31 -6 21.2
16:25 1028 30.36 857 25.31 9.9 49.9 33 -5.8 21.6
16:30 1028 30.36 857 25.31 9.7 49.4 33 -5.9 21.4
16:35 1028 30.36 857 25.31 9.6 49.4 33 -6 21.2
16:40 1028 30.36 857 25.31 9.8 49.7 32 -6.3 20.7
16:45 1028 30.36 857 25.31 9.7 49.5 32 -6 21.2
16:50 1028 30.36 857 25.31 9 48.2 35 -5.7 21.8
16:55 1028 30.36 857 25.31 9.1 48.4 33 -6.1 21
17:00 1028 30.36 857 25.31 9.7 49.4 32 -6.1 21
17:05 1028 30.36 857 25.31 10.1 50.1 32 -5.9 21.3
17:10 1028 30.36 857 25.31 10.1 50.1 31 -6.5 20.4
17:15 1028 30.36 857 25.31 9.6 49.4 32 -6.1 21.1
17:20 1028 30.36 857 25.31 9.2 48.5 34 -5.8 21.5
17:25 1028 30.36 857 25.31 8.9 48 35 -5.6 21.9
17:30 1028 30.36 857 25.31 8.8 47.8 34 -6 21.1
17:35 1028 30.36 857 25.31 8.8 47.8 36 -5.6 21.9
17:40 1028 30.36 857 25.31 9 48.3 36 -5.3 22.4
17:45 1028 30.36 857 25.31 8.3 47 48 -1.9 28.6
17:50 1028 30.36 857 25.31 7.2 45 50 -2.4 27.7
17:55 1028 30.36 857 25.31 7 44.5 55 -1.5 29.3
18:00 1028 30.36 857 25.31 6.4 43.6 60 -0.8 30.5
18:05 1028 30.36 857 25.31 5.8 42.5 61 -1.1 30
18:10 1028 30.36 857 25.31 5.5 41.8 62 -1.3 29.7
18:15 1028 30.36 857 25.31 5.3 41.6 62 -1.3 29.7
18:20 1028 30.36 857 25.31 5.2 41.4 64 -1.1 30.1
18:25 1028 30.36 857 25.31 5.2 41.3 64 -1.1 30
18:30 1028 30.36 857 25.31 5 41 65 -1 30.1
18:35 1028 30.36 857 25.31 4.8 40.6 65 -1.1 30
18:40 1028 30.36 858 25.34 4.7 40.5 66 -1.1 29.9
18:45 1028 30.36 858 25.34 4.6 40.3 66 -1.2 29.9
18:50 1028 30.36 858 25.34 4.5 40.2 66 -1.3 29.7
18:55 1028 30.36 858 25.34 4.5 40.1 66 -1.4 29.5
19:00 1028 30.36 858 25.34 4.4 39.9 66 -1.4 29.5
19:05 1029 30.39 858 25.34 4.4 40 65 -1.5 29.3
19:10 1029 30.39 858 25.34 4.3 39.8 66 -1.5 29.3
19:15 1029 30.39 858 25.34 4.2 39.6 66 -1.6 29
19:20 1029 30.39 858 25.34 4.3 39.8 65 -1.7 28.9
19:25 1029 30.39 858 25.34 4.4 39.9 64 -1.7 28.9
19:30 1029 30.39 858 25.34 4.3 39.8 65 -1.6 29.1
19:35 1029 30.39 858 25.34 4.4 39.8 63 -2.1 28.2
19:40 1029 30.39 858 25.34 4.5 40.1 63 -1.9 28.6
19:45 1029 30.39 858 25.34 4.4 40 63 -2 28.4
19:50 1029 30.39 858 25.34 4.5 40.1 62 -2 28.3
19:55 1029 30.39 858 25.34 4.5 40 62 -2.1 28.3
20:00 1029 30.39 858 25.34 4.4 40 62 -2.3 27.8
20:05 1029 30.39 858 25.34 4.4 39.9 62 -2.2 28
20:10 1029 30.39 858 25.34 4.5 40 59 -3 26.7
20:15 1029 30.39 858 25.34 4.6 40.3 56 -3.3 26
20:20 1029 30.39 858 25.34 4.8 40.7 52 -4.2 24.4
20:25 1029 30.39 858 25.34 5 41.1 52 -4 24.8
20:30 1029 30.39 858 25.34 4.9 40.8 57 -2.9 26.8
20:35 1029 30.39 858 25.34 4.5 40.2 59 -2.8 26.9
20:40 1029 30.39 858 25.34 4.4 39.9 61 -2.5 27.5
20:45 1029 30.39 858 25.34 4.3 39.7 61 -2.6 27.3
20:50 1029 30.39 858 25.34 4.1 39.4 63 -2.4 27.7
20:55 1029 30.39 858 25.34 3.9 39.1 63 -2.4 27.7
21:00 1029 30.39 858 25.34 3.8 38.9 63 -2.7 27.2
21:05 1029 30.39 858 25.34 3.7 38.6 63 -2.7 27.2
21:10 1029 30.39 858 25.34 3.5 38.2 64 -2.8 27
21:15 1029 30.39 858 25.34 3.3 37.9 63 -3.2 26.3
21:20 1029 30.39 858 25.34 3.2 37.8 63 -3.1 26.4
21:25 1029 30.39 858 25.34 3.1 37.6 62 -3.4 25.9
21:30 1029 30.39 858 25.34 3 37.4 62 -3.5 25.7
21:35 1029 30.39 858 25.34 2.9 37.3 62 -3.7 25.4
21:40 1029 30.39 858 25.34 2.9 37.3 61 -3.8 25.2
21:45 1029 30.39 858 25.34 2.9 37.2 61 -3.9 25
21:50 1029 30.39 858 25.34 2.8 37 62 -3.8 25.2
21:55 1029 30.39 858 25.34 2.7 36.9 62 -3.8 25.1
22:00 1029 30.39 858 25.34 2.8 37 61 -3.9 24.9
22:05 1029 30.39 858 25.34 3 37.4 61 -3.8 25.1
22:10 1029 30.39 858 25.34 3.3 37.9 59 -3.9 24.9
22:15 1029 30.39 858 25.34 3.3 38 59 -3.9 24.9
22:20 1029 30.39 858 25.34 3.2 37.8 59 -4.1 24.7
22:25 1029 30.39 858 25.34 3.2 37.8 59 -4.1 24.7
22:30 1029 30.39 858 25.34 3.2 37.8 59 -4.1 24.6
22:35 1029 30.39 858 25.34 3.2 37.7 58 -4.3 24.2
22:40 1029 30.39 858 25.34 3.1 37.5 59 -4.2 24.4
22:45 1029 30.39 858 25.34 2.9 37.2 60 -4.1 24.6
22:50 1029 30.39 858 25.34 2.6 36.7 61 -4.2 24.5
22:55 1029 30.39 858 25.34 2.5 36.5 61 -4.3 24.3
23:00 1029 30.39 858 25.34 2.4 36.3 61 -4.3 24.3
23:05 1029 30.39 858 25.34 2.1 35.9 64 -4 24.8
23:10 1029 30.39 858 25.34 1.8 35.3 64 -4.3 24.3
23:15 1029 30.39 858 25.34 1.9 35.5 63 -4.5 24
23:20 1029 30.39 858 25.34 2.2 35.9 61 -4.5 23.9
23:25 1029 30.39 858 25.34 2.4 36.3 60 -4.6 23.7
23:30 1029 30.39 858 25.34 2.5 36.5 60 -4.6 23.8
23:35 1029 30.39 858 25.34 2.3 36.2 61 -4.3 24.2
23:40 1029 30.39 858 25.34 1.7 35.1 65 -4.2 24.4
23:45 1029 30.39 858 25.34 1.5 34.7 65 -4.4 24
23:50 1029 30.39 858 25.34 1.6 34.8 63 -4.6 23.7
23:55 1029 30.39 858 25.34 1.6 34.9 63 -4.6 23.7
24:00 1029 30.39 858 25.34 1.5 34.7 64 -4.6 23.7